• Join FlightAware (Why Join?)
  • Login
  • US Flag 
04:13PM EDT


 

Airport Tracker/Info


-or-


 

Live Flight TrackerFlight Track Log ✈ EGF4247 ✈ 09-Jun-2013 ✈ KBUF - KORD

Flight Track Log - Related Links

Times and Time Zones

All times are in EDT time to prevent confusion due to time zone crossing. See the EGF4247 flight status page for this flight to view local times or setup timezone preferences in your user account.

Time Position Orientation Groundspeed Altitude Reporting Facility
EDT Latitude Longitude Course Direction KTS MPH feet Rate Location/Type
03:48PM 42.9167 -78.7500 255° West 180 207 1,500  Level Buffalo TRACON
03:49PM 42.9000 -78.8333 255° West 226 260 4,400 2,040 Climbing Buffalo TRACON
03:50PM 42.9500 -78.8833 324° Northwest 230 265 6,200 2,160 Climbing Toronto Center
03:51PM 42.9833 -78.9667 299° West 260 299 8,700 2,220 Climbing Toronto Center
03:52PM 43.0000 -79.0667 283° West 270 311 10,700 1,680 Climbing Toronto Center
03:53PM 43.0167 -79.1833 281° West 290 334 12,100 1,200 Climbing Toronto Center
03:54PM 43.0167 -79.2833 270° West 320 368 13,200 1,260 Climbing Toronto Center
03:55PM 43.0167 -79.4333 270° West 330 380 14,700 1,440 Climbing Toronto Center
03:56PM 43.0167 -79.5500 270° West 330 380 16,100 1,440 Climbing Toronto Center
03:57PM 43.0167 -79.6833 270° West 330 380 17,600 1,200 Climbing Toronto Center
03:58PM 43.0167 -79.8000 270° West 330 380 18,500 960 Climbing Toronto Center
03:59PM 43.0167 -79.9333 270° West 350 403 19,600 960 Climbing Toronto Center
04:00PM 43.0167 -80.0667 270° West 360 414 20,500 900 Climbing Toronto Center
04:01PM 43.0167 -80.2000 270° West 360 414 21,500 900 Climbing Toronto Center
04:02PM 43.0333 -80.3333 280° West 370 426 22,400 900 Climbing Toronto Center
04:03PM 43.0333 -80.5000 270° West 380 437 23,400 900 Climbing Toronto Center
04:04PM 43.0333 -80.6333 270° West 380 437 24,300 900 Climbing Toronto Center
04:05PM 43.0333 -80.8000 270° West 380 437 25,300 960 Climbing Toronto Center
04:06PM 43.0167 -80.9333 260° West 380 437 26,300 960 Climbing Toronto Center
04:07PM 43.0167 -81.0667 270° West 380 437 27,300 840 Climbing Toronto Center
04:08PM 43.0167 -81.2000 270° West 380 437 28,000 300 Climbing Toronto Center
04:09PM 43.0167 -81.3667 270° West 390 449 28,000  Level Toronto Center
04:10PM 43.0167 -81.5333 270° West 400 460 28,000  Level Toronto Center
04:11PM 43.0167 -81.6667 270° West 410 472 28,000  Level Toronto Center
04:12PM 43.0167 -81.8167 270° West 420 483 28,000  Level Toronto Center
04:13PM 43.0000 -81.9833 262° West 420 483 28,000  Level Toronto Center
04:14PM 43.0000 -82.1667 270° West 420 483 28,000  Level Toronto Center
04:15PM 43.0000 -82.3000 270° West 420 483 28,000  Level Toronto Center
04:16PM 43.0000 -82.4833 270° West 420 483 28,000  Level Toronto Center
04:17PM 43.0000 -82.6167 270° West 420 483 28,000  Level Toronto Center
04:18PM 43.0003 -82.7633 270° West 420 483 28,000  Level Cleveland Center
04:19PM 42.9950 -82.9222 267° West 420 483 28,000  Level Cleveland Center
04:20PM 42.9875 -83.0836 266° West 420 483 28,000  Level Cleveland Center
04:21PM 42.9839 -83.2425 268° West 420 483 28,000  Level Cleveland Center
04:22PM 42.9781 -83.4011 267° West 420 483 28,000  Level Cleveland Center
04:23PM 42.9714 -83.5797 267° West 420 483 28,000  Level Cleveland Center
04:24PM 42.9653 -83.7383 267° West 420 483 28,000  Level Cleveland Center
04:25PM 42.9525 -83.8936 264° West 420 483 28,000  Level Cleveland Center
04:26PM 42.9356 -84.0489 262° West 420 483 28,000  Level Cleveland Center
04:28PM 42.9153 -84.2761 263° West 415 478 28,000  Level Chicago Center
04:29PM 42.8994 -84.4308 262° West 413 475 28,000  Level Chicago Center
04:30PM 42.8836 -84.5844 262° West 410 472 28,000  Level Chicago Center
04:31PM 42.8681 -84.7397 262° West 414 476 28,000  Level Chicago Center
04:32PM 42.8508 -84.8939 261° West 414 476 28,000  Level Chicago Center
04:33PM 42.8356 -85.0469 262° West 411 473 28,000  Level Chicago Center
04:34PM 42.8153 -85.2322 262° West 411 473 28,000 -300 Level Chicago Center
04:35PM 42.7986 -85.3881 262° West 414 476 27,400 -840 Descending Chicago Center
04:36PM 42.7792 -85.5442 260° West 416 479 26,300 -1,020 Descending Chicago Center
04:37PM 42.7506 -85.6944 256° West 410 472 25,300 -1,260 Descending Chicago Center
04:38PM 42.7236 -85.8483 257° West 415 478 23,800 -1,500 Descending Chicago Center
04:39PM 42.6950 -86.0022 256° West 417 480 22,200 -1,620 Descending Chicago Center
04:40PM 42.6692 -86.1475 256° West 398 458 20,500 -1,800 Descending Chicago Center
04:41PM 42.6361 -86.3203 255° West 392 451 18,600 -1,800 Descending Chicago Center
04:42PM 42.6086 -86.4586 255° West 383 441 16,900 -1,680 Descending Chicago Center
04:43PM 42.5844 -86.5950 257° West 373 429 15,200 -1,680 Descending Chicago Center
04:44PM 42.5583 -86.7319 256° West 373 429 13,500 -1,680 Descending Chicago Center
04:45PM 42.5244 -86.8617 251° West 367 422 11,800 -1,500 Descending Chicago Center
04:46PM 42.4911 -86.9850 250° West 353 406 10,500 -1,260 Descending Chicago Center
04:47PM 42.4569 -87.1069 249° West 288 331 9,200 -720 Descending Chicago Center
04:48PM 42.4236 -87.1975 244° Southwest 272 313 9,000 -300 Descending Chicago Center
04:49PM 42.3883 -87.2897 243° Southwest 275 316 8,600 -720 Descending Chicago Center
04:50PM 42.3553 -87.3806 244° Southwest 271 312 7,600 -780 Descending Chicago Center
04:51PM 42.3200 -87.4739 243° Southwest 271 312 7,000 -300 Descending Chicago Center
04:52PM 42.2908 -87.5656 247° West 262 302 7,100 -60 Climbing Chicago Center
04:53PM 42.2392 -87.6308 223° Southwest 262 302 6,900 -780 Descending Chicago Center
04:54PM 42.1833 -87.6892 218° Southwest 258 297 5,500 -1,500 Descending Chicago Center
04:55PM 42.1211 -87.7608 221° Southwest 250 288 3,900 -1,440 Descending Chicago Center
04:56PM 42.0731 -87.8169 221° Southwest 241 277 2,600 -1,080 Descending Chicago Center
04:58PM 42.0353 -87.8542 216° Southwest 196 226 1,700 -960 Descending Chicago Center
04:58PM 42.0000 -87.8833 212° Southwest 147 169 900 -1,020 Descending Chicago TRACON
05:01PM 41.9817 -87.9067 217° Southwest  Level Estimated